KFFO/FFO METAR and TAF weather

Enter ICAO airport designator
Station Type Date Time Source
KFFO METAR 2020/09/27 15:56 UTC NOAA

KFFO 271556Z AUTO 21015G18KT 10SM OVC026 23/15 A2988 RMK AO2 CIG 025 RWY05L SLP117 T02330151


Station Type Date Time Source
KFFO Decoded METAR 2020/09/27 15:56 UTC NOAA

Dayton / Wright-Patterson Air Force Base, OH, United States (KFFO) 39-50N 084-03W 251M
Sep 27, 2020 - 11:56 AM EDT / 2020.09.27 1556 UTC
Wind: from the SSW (210 degrees) at 17 MPH (15 KT) gusting to 21 MPH (18 KT):0
Visibility: 10 mile(s):0
Sky conditions: overcast
Temperature: 73.9 F (23.3 C)
Dew Point: 59.2 F (15.1 C)
Relative Humidity: 59%
Pressure (altimeter): 29.88 in. Hg (1011 hPa)
ob: KFFO 271556Z AUTO 21015G18KT 10SM OVC026 23/15 A2988 RMK AO2 CIG 025 RWY05L SLP117 T02330151
cycle: 16

Station Type Date Time Source
KFFO TAF 2020/09/27 15:30 UTC NOAA

TAF
AMD KFFO 271523Z 2715/2817 22012G18KT 9999 SCT030 QNH2984INS
TEMPO 2715/2719 23020G25KT
BECMG 2723/2724 21006KT 9999 BKN030 QNH2975INS
BECMG 2813/2814 19010G15KT 4800 -SHRA BKN015 OVC040 QNH2984INS TX25/2720Z TN22/2715Z

Example: see airport list